sensor_id;sensor_type;location;lat;lon;timestamp;P1;durP1;ratioP1;P2;durP2;ratioP2
48034;SDS011;33812;46.480;6.834;2022-08-19T00:07:21;4.78;;;2.92;;
48034;SDS011;33812;46.480;6.834;2022-08-19T00:11:23;3.72;;;2.65;;
48034;SDS011;33812;46.480;6.834;2022-08-19T00:15:27;6.10;;;2.80;;
48034;SDS011;33812;46.480;6.834;2022-08-19T00:19:30;6.63;;;2.75;;
48034;SDS011;33812;46.480;6.834;2022-08-19T00:23:33;2.92;;;2.33;;
48034;SDS011;33812;46.480;6.834;2022-08-19T00:27:36;2.78;;;2.20;;
48034;SDS011;33812;46.480;6.834;2022-08-19T00:31:38;3.67;;;1.85;;
48034;SDS011;33812;46.480;6.834;2022-08-19T00:35:43;1.83;;;1.50;;
48034;SDS011;33812;46.480;6.834;2022-08-19T00:39:44;1.92;;;1.73;;
48034;SDS011;33812;46.480;6.834;2022-08-19T00:43:56;3.35;;;1.80;;
48034;SDS011;33812;46.480;6.834;2022-08-19T00:47:58;2.83;;;1.95;;
48034;SDS011;33812;46.480;6.834;2022-08-19T00:52:06;4.00;;;1.58;;
48034;SDS011;33812;46.480;6.834;2022-08-19T00:56:12;2.05;;;1.70;;
48034;SDS011;33812;46.480;6.834;2022-08-19T01:00:17;4.40;;;1.60;;
48034;SDS011;33812;46.480;6.834;2022-08-19T01:08:23;2.95;;;1.65;;
48034;SDS011;33812;46.480;6.834;2022-08-19T01:12:24;4.05;;;1.60;;
48034;SDS011;33812;46.480;6.834;2022-08-19T01:16:27;1.77;;;1.48;;
48034;SDS011;33812;46.480;6.834;2022-08-19T01:20:31;1.30;;;1.20;;
48034;SDS011;33812;46.480;6.834;2022-08-19T01:24:36;1.42;;;1.17;;
48034;SDS011;33812;46.480;6.834;2022-08-19T01:28:40;2.03;;;1.25;;
48034;SDS011;33812;46.480;6.834;2022-08-19T01:32:42;2.17;;;1.33;;
48034;SDS011;33812;46.480;6.834;2022-08-19T01:36:46;2.75;;;1.20;;
48034;SDS011;33812;46.480;6.834;2022-08-19T01:40:52;1.00;;;1.00;;
48034;SDS011;33812;46.480;6.834;2022-08-19T01:44:54;1.25;;;1.08;;
48034;SDS011;33812;46.480;6.834;2022-08-19T01:48:56;1.73;;;0.90;;
48034;SDS011;33812;46.480;6.834;2022-08-19T01:52:58;1.77;;;0.80;;
48034;SDS011;33812;46.480;6.834;2022-08-19T01:57:02;1.85;;;0.80;;
48034;SDS011;33812;46.480;6.834;2022-08-19T02:01:07;1.30;;;1.10;;
48034;SDS011;33812;46.480;6.834;2022-08-19T02:05:10;1.85;;;1.00;;
48034;SDS011;33812;46.480;6.834;2022-08-19T02:09:13;1.77;;;0.98;;
48034;SDS011;33812;46.480;6.834;2022-08-19T02:13:17;1.17;;;0.98;;
48034;SDS011;33812;46.480;6.834;2022-08-19T02:17:19;1.05;;;0.73;;
48034;SDS011;33812;46.480;6.834;2022-08-19T02:21:22;1.52;;;0.80;;
48034;SDS011;33812;46.480;6.834;2022-08-19T02:25:24;0.95;;;0.85;;
48034;SDS011;33812;46.480;6.834;2022-08-19T02:29:27;1.30;;;0.80;;
48034;SDS011;33812;46.480;6.834;2022-08-19T02:33:29;1.50;;;1.15;;
48034;SDS011;33812;46.480;6.834;2022-08-19T02:37:30;0.75;;;0.70;;
48034;SDS011;33812;46.480;6.834;2022-08-19T02:41:50;2.83;;;1.48;;
48034;SDS011;33812;46.480;6.834;2022-08-19T02:45:53;0.80;;;0.70;;
48034;SDS011;33812;46.480;6.834;2022-08-19T02:49:55;2.08;;;0.63;;
48034;SDS011;33812;46.480;6.834;2022-08-19T02:53:57;1.13;;;0.70;;
48034;SDS011;33812;46.480;6.834;2022-08-19T02:57:59;4.05;;;0.57;;
48034;SDS011;33812;46.480;6.834;2022-08-19T03:02:03;1.08;;;0.65;;
48034;SDS011;33812;46.480;6.834;2022-08-19T03:06:07;0.63;;;0.50;;
48034;SDS011;33812;46.480;6.834;2022-08-19T03:10:10;0.40;;;0.40;;
48034;SDS011;33812;46.480;6.834;2022-08-19T03:14:13;0.68;;;0.57;;
48034;SDS011;33812;46.480;6.834;2022-08-19T03:18:17;0.85;;;0.50;;
48034;SDS011;33812;46.480;6.834;2022-08-19T03:22:19;1.10;;;0.63;;
48034;SDS011;33812;46.480;6.834;2022-08-19T03:26:21;0.80;;;0.50;;
48034;SDS011;33812;46.480;6.834;2022-08-19T03:30:22;0.43;;;0.43;;
48034;SDS011;33812;46.480;6.834;2022-08-19T03:34:26;0.60;;;0.50;;
48034;SDS011;33812;46.480;6.834;2022-08-19T03:38:30;1.33;;;0.50;;
48034;SDS011;33812;46.480;6.834;2022-08-19T03:42:32;2.55;;;0.63;;
48034;SDS011;33812;46.480;6.834;2022-08-19T03:46:35;0.80;;;0.55;;
48034;SDS011;33812;46.480;6.834;2022-08-19T03:50:39;1.10;;;0.60;;
48034;SDS011;33812;46.480;6.834;2022-08-19T03:54:42;0.55;;;0.40;;
48034;SDS011;33812;46.480;6.834;2022-08-19T03:58:45;2.72;;;0.50;;
48034;SDS011;33812;46.480;6.834;2022-08-19T04:02:48;1.30;;;0.50;;
48034;SDS011;33812;46.480;6.834;2022-08-19T04:06:51;3.20;;;0.68;;
48034;SDS011;33812;46.480;6.834;2022-08-19T04:10:54;1.07;;;0.63;;
48034;SDS011;33812;46.480;6.834;2022-08-19T04:14:55;0.82;;;0.57;;
48034;SDS011;33812;46.480;6.834;2022-08-19T04:18:59;6.75;;;0.75;;
48034;SDS011;33812;46.480;6.834;2022-08-19T04:23:03;0.73;;;0.50;;
48034;SDS011;33812;46.480;6.834;2022-08-19T04:27:05;1.65;;;0.50;;
48034;SDS011;33812;46.480;6.834;2022-08-19T04:31:11;1.38;;;0.47;;
48034;SDS011;33812;46.480;6.834;2022-08-19T04:35:15;2.40;;;0.95;;
48034;SDS011;33812;46.480;6.834;2022-08-19T04:39:19;2.40;;;0.80;;
48034;SDS011;33812;46.480;6.834;2022-08-19T04:43:22;3.70;;;0.55;;
48034;SDS011;33812;46.480;6.834;2022-08-19T04:47:22;1.15;;;0.93;;
48034;SDS011;33812;46.480;6.834;2022-08-19T04:51:24;1.92;;;0.70;;
48034;SDS011;33812;46.480;6.834;2022-08-19T04:55:27;3.33;;;1.42;;
48034;SDS011;33812;46.480;6.834;2022-08-19T04:59:29;9.93;;;1.08;;
48034;SDS011;33812;46.480;6.834;2022-08-19T05:03:32;4.68;;;0.80;;
48034;SDS011;33812;46.480;6.834;2022-08-19T05:07:34;5.10;;;1.75;;
48034;SDS011;33812;46.480;6.834;2022-08-19T05:11:37;1.27;;;0.73;;
48034;SDS011;33812;46.480;6.834;2022-08-19T05:15:39;2.53;;;0.63;;
48034;SDS011;33812;46.480;6.834;2022-08-19T05:19:42;5.53;;;1.23;;
48034;SDS011;33812;46.480;6.834;2022-08-19T05:24:02;11.55;;;1.95;;
48034;SDS011;33812;46.480;6.834;2022-08-19T05:28:09;3.35;;;0.90;;
48034;SDS011;33812;46.480;6.834;2022-08-19T05:32:11;8.60;;;0.60;;
48034;SDS011;33812;46.480;6.834;2022-08-19T05:36:13;4.07;;;0.90;;
48034;SDS011;33812;46.480;6.834;2022-08-19T05:40:15;3.78;;;0.70;;
48034;SDS011;33812;46.480;6.834;2022-08-19T05:44:18;2.80;;;0.90;;
48034;SDS011;33812;46.480;6.834;2022-08-19T05:48:21;1.77;;;0.70;;
48034;SDS011;33812;46.480;6.834;2022-08-19T05:52:23;4.07;;;1.20;;
48034;SDS011;33812;46.480;6.834;2022-08-19T05:56:24;2.58;;;0.90;;
48034;SDS011;33812;46.480;6.834;2022-08-19T06:00:27;3.47;;;0.98;;
48034;SDS011;33812;46.480;6.834;2022-08-19T06:04:30;1.80;;;1.20;;
48034;SDS011;33812;46.480;6.834;2022-08-19T06:08:33;8.40;;;0.93;;
48034;SDS011;33812;46.480;6.834;2022-08-19T06:12:37;1.92;;;1.00;;
48034;SDS011;33812;46.480;6.834;2022-08-19T06:16:44;2.55;;;1.00;;
48034;SDS011;33812;46.480;6.834;2022-08-19T06:20:47;2.40;;;1.05;;
48034;SDS011;33812;46.480;6.834;2022-08-19T06:24:50;1.13;;;0.93;;
48034;SDS011;33812;46.480;6.834;2022-08-19T06:28:52;5.38;;;1.75;;
48034;SDS011;33812;46.480;6.834;2022-08-19T06:32:56;3.78;;;1.00;;
48034;SDS011;33812;46.480;6.834;2022-08-19T06:37:05;3.38;;;1.27;;
48034;SDS011;33812;46.480;6.834;2022-08-19T06:45:18;4.70;;;1.33;;
48034;SDS011;33812;46.480;6.834;2022-08-19T06:49:22;7.35;;;1.33;;
48034;SDS011;33812;46.480;6.834;2022-08-19T06:53:25;2.55;;;1.42;;
48034;SDS011;33812;46.480;6.834;2022-08-19T06:57:28;4.95;;;1.40;;
48034;SDS011;33812;46.480;6.834;2022-08-19T07:01:34;1.58;;;1.33;;
48034;SDS011;33812;46.480;6.834;2022-08-19T07:05:39;2.15;;;1.30;;
48034;SDS011;33812;46.480;6.834;2022-08-19T07:09:42;3.13;;;2.10;;
48034;SDS011;33812;46.480;6.834;2022-08-19T07:13:45;2.85;;;1.85;;
48034;SDS011;33812;46.480;6.834;2022-08-19T07:17:48;3.35;;;2.10;;
48034;SDS011;33812;46.480;6.834;2022-08-19T07:21:53;1.65;;;1.52;;
48034;SDS011;33812;46.480;6.834;2022-08-19T07:25:55;6.50;;;1.50;;
48034;SDS011;33812;46.480;6.834;2022-08-19T07:29:57;6.82;;;2.13;;
48034;SDS011;33812;46.480;6.834;2022-08-19T07:38:16;2.28;;;2.08;;
48034;SDS011;33812;46.480;6.834;2022-08-19T07:42:18;3.60;;;2.42;;
48034;SDS011;33812;46.480;6.834;2022-08-19T07:46:21;3.47;;;2.47;;
48034;SDS011;33812;46.480;6.834;2022-08-19T07:50:23;4.75;;;2.13;;
48034;SDS011;33812;46.480;6.834;2022-08-19T07:54:27;2.95;;;2.47;;
48034;SDS011;33812;46.480;6.834;2022-08-19T07:58:32;9.18;;;2.75;;
48034;SDS011;33812;46.480;6.834;2022-08-19T08:02:37;4.50;;;2.88;;
48034;SDS011;33812;46.480;6.834;2022-08-19T08:06:43;3.40;;;2.45;;
48034;SDS011;33812;46.480;6.834;2022-08-19T08:11:05;5.28;;;3.28;;
48034;SDS011;33812;46.480;6.834;2022-08-19T08:19:11;3.35;;;2.38;;
48034;SDS011;33812;46.480;6.834;2022-08-19T08:31:33;2.92;;;2.30;;
48034;SDS011;33812;46.480;6.834;2022-08-19T08:35:35;10.02;;;2.60;;
48034;SDS011;33812;46.480;6.834;2022-08-19T08:39:43;4.15;;;2.97;;
48034;SDS011;33812;46.480;6.834;2022-08-19T08:43:47;5.65;;;2.53;;
48034;SDS011;33812;46.480;6.834;2022-08-19T08:47:52;3.60;;;2.30;;
48034;SDS011;33812;46.480;6.834;2022-08-19T08:52:00;2.92;;;2.40;;
48034;SDS011;33812;46.480;6.834;2022-08-19T08:56:06;3.85;;;2.40;;
48034;SDS011;33812;46.480;6.834;2022-08-19T09:00:17;3.80;;;2.10;;
48034;SDS011;33812;46.480;6.834;2022-08-19T09:04:20;4.18;;;2.50;;
48034;SDS011;33812;46.480;6.834;2022-08-19T09:08:26;3.53;;;2.88;;
48034;SDS011;33812;46.480;6.834;2022-08-19T09:12:41;2.90;;;2.60;;
48034;SDS011;33812;46.480;6.834;2022-08-19T09:16:51;3.38;;;2.92;;
48034;SDS011;33812;46.480;6.834;2022-08-19T09:20:53;3.22;;;2.92;;
48034;SDS011;33812;46.480;6.834;2022-08-19T09:24:56;3.55;;;2.78;;
48034;SDS011;33812;46.480;6.834;2022-08-19T09:28:58;3.92;;;2.63;;
48034;SDS011;33812;46.480;6.834;2022-08-19T09:33:03;2.83;;;2.53;;
48034;SDS011;33812;46.480;6.834;2022-08-19T09:37:06;2.40;;;2.20;;
48034;SDS011;33812;46.480;6.834;2022-08-19T09:41:09;4.30;;;2.70;;
48034;SDS011;33812;46.480;6.834;2022-08-19T09:45:13;3.85;;;3.17;;
48034;SDS011;33812;46.480;6.834;2022-08-19T09:49:17;3.33;;;2.85;;
48034;SDS011;33812;46.480;6.834;2022-08-19T09:53:21;5.47;;;2.55;;
48034;SDS011;33812;46.480;6.834;2022-08-19T09:57:23;3.00;;;2.67;;
48034;SDS011;33812;46.480;6.834;2022-08-19T10:01:26;2.50;;;2.30;;
48034;SDS011;33812;46.480;6.834;2022-08-19T10:05:30;6.17;;;3.63;;
48034;SDS011;33812;46.480;6.834;2022-08-19T10:09:50;6.35;;;2.90;;
48034;SDS011;33812;46.480;6.834;2022-08-19T10:13:52;3.13;;;2.83;;
48034;SDS011;33812;46.480;6.834;2022-08-19T10:17:54;3.22;;;2.90;;
48034;SDS011;33812;46.480;6.834;2022-08-19T10:21:58;3.45;;;3.00;;
48034;SDS011;33812;46.480;6.834;2022-08-19T10:26:03;5.43;;;2.97;;
48034;SDS011;33812;46.480;6.834;2022-08-19T10:30:06;6.15;;;3.17;;
48034;SDS011;33812;46.480;6.834;2022-08-19T10:34:09;3.20;;;2.90;;
48034;SDS011;33812;46.480;6.834;2022-08-19T10:38:12;3.38;;;2.42;;
48034;SDS011;33812;46.480;6.834;2022-08-19T10:42:14;3.63;;;2.67;;
48034;SDS011;33812;46.480;6.834;2022-08-19T10:46:18;2.60;;;2.40;;
48034;SDS011;33812;46.480;6.834;2022-08-19T10:50:20;3.47;;;2.65;;
48034;SDS011;33812;46.480;6.834;2022-08-19T10:54:41;3.33;;;2.75;;
48034;SDS011;33812;46.480;6.834;2022-08-19T10:59:00;3.20;;;2.90;;
48034;SDS011;33812;46.480;6.834;2022-08-19T11:03:03;3.28;;;2.97;;
48034;SDS011;33812;46.480;6.834;2022-08-19T11:07:05;3.63;;;3.05;;
48034;SDS011;33812;46.480;6.834;2022-08-19T11:11:09;3.25;;;2.95;;
48034;SDS011;33812;46.480;6.834;2022-08-19T11:15:11;3.40;;;3.10;;
48034;SDS011;33812;46.480;6.834;2022-08-19T11:19:12;4.15;;;3.40;;
48034;SDS011;33812;46.480;6.834;2022-08-19T11:23:17;4.22;;;3.70;;
48034;SDS011;33812;46.480;6.834;2022-08-19T11:27:20;4.30;;;3.40;;
48034;SDS011;33812;46.480;6.834;2022-08-19T11:31:25;3.78;;;3.20;;
48034;SDS011;33812;46.480;6.834;2022-08-19T11:35:30;3.47;;;3.17;;
48034;SDS011;33812;46.480;6.834;2022-08-19T11:39:33;3.22;;;2.90;;
48034;SDS011;33812;46.480;6.834;2022-08-19T11:43:38;2.92;;;2.67;;
48034;SDS011;33812;46.480;6.834;2022-08-19T11:47:40;5.55;;;3.28;;
48034;SDS011;33812;46.480;6.834;2022-08-19T11:51:41;4.35;;;3.40;;
48034;SDS011;33812;46.480;6.834;2022-08-19T11:55:44;3.95;;;3.28;;
48034;SDS011;33812;46.480;6.834;2022-08-19T11:59:51;3.67;;;3.30;;
48034;SDS011;33812;46.480;6.834;2022-08-19T12:03:54;3.92;;;3.63;;
48034;SDS011;33812;46.480;6.834;2022-08-19T12:07:57;4.45;;;3.85;;
48034;SDS011;33812;46.480;6.834;2022-08-19T12:11:59;6.00;;;4.38;;
48034;SDS011;33812;46.480;6.834;2022-08-19T12:16:08;5.10;;;4.00;;
48034;SDS011;33812;46.480;6.834;2022-08-19T12:20:11;4.70;;;4.22;;
48034;SDS011;33812;46.480;6.834;2022-08-19T12:24:15;6.05;;;4.15;;
48034;SDS011;33812;46.480;6.834;2022-08-19T12:28:23;6.50;;;3.90;;
48034;SDS011;33812;46.480;6.834;2022-08-19T12:32:27;4.38;;;3.97;;
48034;SDS011;33812;46.480;6.834;2022-08-19T12:36:29;5.55;;;4.65;;
48034;SDS011;33812;46.480;6.834;2022-08-19T12:40:31;4.03;;;3.45;;
48034;SDS011;33812;46.480;6.834;2022-08-19T12:44:33;4.50;;;4.05;;
48034;SDS011;33812;46.480;6.834;2022-08-19T12:48:36;4.72;;;3.80;;
48034;SDS011;33812;46.480;6.834;2022-08-19T12:52:41;4.72;;;4.22;;
48034;SDS011;33812;46.480;6.834;2022-08-19T12:56:43;4.82;;;3.63;;
48034;SDS011;33812;46.480;6.834;2022-08-19T13:00:46;5.53;;;4.47;;
48034;SDS011;33812;46.480;6.834;2022-08-19T13:04:50;4.80;;;4.30;;
48034;SDS011;33812;46.480;6.834;2022-08-19T13:08:53;5.93;;;4.63;;
48034;SDS011;33812;46.480;6.834;2022-08-19T13:12:56;5.10;;;4.60;;
48034;SDS011;33812;46.480;6.834;2022-08-19T13:17:00;5.10;;;4.32;;
48034;SDS011;33812;46.480;6.834;2022-08-19T13:21:04;7.65;;;4.50;;
48034;SDS011;33812;46.480;6.834;2022-08-19T13:25:07;7.05;;;4.60;;
48034;SDS011;33812;46.480;6.834;2022-08-19T13:29:10;4.22;;;3.83;;
48034;SDS011;33812;46.480;6.834;2022-08-19T13:33:29;5.82;;;4.95;;
48034;SDS011;33812;46.480;6.834;2022-08-19T13:37:34;5.93;;;4.63;;
48034;SDS011;33812;46.480;6.834;2022-08-19T13:41:43;4.40;;;3.90;;
48034;SDS011;33812;46.480;6.834;2022-08-19T13:45:48;5.15;;;4.68;;
48034;SDS011;33812;46.480;6.834;2022-08-19T13:49:50;4.90;;;4.40;;
48034;SDS011;33812;46.480;6.834;2022-08-19T13:53:54;4.13;;;3.72;;
48034;SDS011;33812;46.480;6.834;2022-08-19T13:57:57;5.67;;;4.57;;
48034;SDS011;33812;46.480;6.834;2022-08-19T14:02:01;6.28;;;4.90;;
48034;SDS011;33812;46.480;6.834;2022-08-19T14:06:05;5.30;;;4.40;;
48034;SDS011;33812;46.480;6.834;2022-08-19T14:10:10;5.10;;;4.60;;
48034;SDS011;33812;46.480;6.834;2022-08-19T14:14:12;3.95;;;3.58;;
48034;SDS011;33812;46.480;6.834;2022-08-19T14:18:15;6.15;;;4.45;;
48034;SDS011;33812;46.480;6.834;2022-08-19T14:22:17;4.40;;;3.97;;
48034;SDS011;33812;46.480;6.834;2022-08-19T14:26:21;6.72;;;4.40;;
48034;SDS011;33812;46.480;6.834;2022-08-19T14:30:24;4.40;;;4.00;;
48034;SDS011;33812;46.480;6.834;2022-08-19T14:34:28;5.75;;;4.82;;
48034;SDS011;33812;46.480;6.834;2022-08-19T14:38:31;4.97;;;3.90;;
48034;SDS011;33812;46.480;6.834;2022-08-19T14:42:35;6.40;;;4.38;;
48034;SDS011;33812;46.480;6.834;2022-08-19T14:46:38;4.40;;;3.92;;
48034;SDS011;33812;46.480;6.834;2022-08-19T14:50:45;5.65;;;5.15;;
48034;SDS011;33812;46.480;6.834;2022-08-19T14:54:48;8.57;;;4.13;;
48034;SDS011;33812;46.480;6.834;2022-08-19T15:02:59;5.25;;;4.13;;
48034;SDS011;33812;46.480;6.834;2022-08-19T15:07:01;7.07;;;3.97;;
48034;SDS011;33812;46.480;6.834;2022-08-19T15:11:07;5.03;;;4.53;;
48034;SDS011;33812;46.480;6.834;2022-08-19T15:15:14;10.63;;;3.97;;
48034;SDS011;33812;46.480;6.834;2022-08-19T15:19:17;6.88;;;4.63;;
48034;SDS011;33812;46.480;6.834;2022-08-19T15:23:19;5.32;;;4.65;;
48034;SDS011;33812;46.480;6.834;2022-08-19T15:27:24;8.98;;;4.15;;
48034;SDS011;33812;46.480;6.834;2022-08-19T15:31:27;4.93;;;4.43;;
48034;SDS011;33812;46.480;6.834;2022-08-19T15:35:35;8.48;;;4.63;;
48034;SDS011;33812;46.480;6.834;2022-08-19T15:39:40;5.55;;;5.00;;
48034;SDS011;33812;46.480;6.834;2022-08-19T15:43:43;6.05;;;4.63;;
48034;SDS011;33812;46.480;6.834;2022-08-19T15:47:47;6.67;;;4.90;;
48034;SDS011;33812;46.480;6.834;2022-08-19T15:51:51;5.28;;;4.78;;
48034;SDS011;33812;46.480;6.834;2022-08-19T15:55:53;6.13;;;4.67;;
48034;SDS011;33812;46.480;6.834;2022-08-19T15:59:56;7.18;;;4.90;;
48034;SDS011;33812;46.480;6.834;2022-08-19T16:04:17;7.70;;;4.80;;
48034;SDS011;33812;46.480;6.834;2022-08-19T16:08:36;11.35;;;4.97;;
48034;SDS011;33812;46.480;6.834;2022-08-19T16:12:38;4.22;;;3.83;;
48034;SDS011;33812;46.480;6.834;2022-08-19T16:16:41;6.18;;;4.03;;
48034;SDS011;33812;46.480;6.834;2022-08-19T16:20:48;3.83;;;3.42;;
48034;SDS011;33812;46.480;6.834;2022-08-19T16:24:51;7.65;;;4.20;;
48034;SDS011;33812;46.480;6.834;2022-08-19T16:28:53;4.55;;;3.83;;
48034;SDS011;33812;46.480;6.834;2022-08-19T16:32:55;4.35;;;3.67;;
48034;SDS011;33812;46.480;6.834;2022-08-19T16:36:59;5.10;;;3.50;;
48034;SDS011;33812;46.480;6.834;2022-08-19T16:41:02;6.68;;;4.88;;
48034;SDS011;33812;46.480;6.834;2022-08-19T16:45:04;7.60;;;4.30;;
48034;SDS011;33812;46.480;6.834;2022-08-19T16:49:09;6.43;;;4.32;;
48034;SDS011;33812;46.480;6.834;2022-08-19T16:53:13;5.03;;;4.47;;
48034;SDS011;33812;46.480;6.834;2022-08-19T16:57:16;8.82;;;5.65;;
48034;SDS011;33812;46.480;6.834;2022-08-19T17:01:18;8.13;;;4.45;;
48034;SDS011;33812;46.480;6.834;2022-08-19T17:05:20;6.72;;;4.50;;
48034;SDS011;33812;46.480;6.834;2022-08-19T17:09:23;6.15;;;5.35;;
48034;SDS011;33812;46.480;6.834;2022-08-19T17:13:26;6.72;;;5.13;;
48034;SDS011;33812;46.480;6.834;2022-08-19T17:17:29;7.10;;;4.60;;
48034;SDS011;33812;46.480;6.834;2022-08-19T17:21:33;6.45;;;5.25;;
48034;SDS011;33812;46.480;6.834;2022-08-19T17:25:39;8.82;;;7.00;;
48034;SDS011;33812;46.480;6.834;2022-08-19T17:29:41;5.82;;;4.38;;
48034;SDS011;33812;46.480;6.834;2022-08-19T17:33:42;4.95;;;4.07;;
48034;SDS011;33812;46.480;6.834;2022-08-19T17:37:45;9.63;;;4.22;;
48034;SDS011;33812;46.480;6.834;2022-08-19T17:41:49;4.78;;;4.25;;
48034;SDS011;33812;46.480;6.834;2022-08-19T17:45:52;5.03;;;4.35;;
48034;SDS011;33812;46.480;6.834;2022-08-19T17:49:53;5.40;;;4.45;;
48034;SDS011;33812;46.480;6.834;2022-08-19T17:53:56;9.20;;;4.40;;
48034;SDS011;33812;46.480;6.834;2022-08-19T17:58:00;8.57;;;3.92;;
48034;SDS011;33812;46.480;6.834;2022-08-19T18:02:04;4.50;;;3.88;;
48034;SDS011;33812;46.480;6.834;2022-08-19T18:06:07;5.28;;;3.63;;
48034;SDS011;33812;46.480;6.834;2022-08-19T18:10:11;4.95;;;3.75;;
48034;SDS011;33812;46.480;6.834;2022-08-19T18:14:15;6.57;;;3.85;;
48034;SDS011;33812;46.480;6.834;2022-08-19T18:18:17;4.30;;;3.90;;
48034;SDS011;33812;46.480;6.834;2022-08-19T18:22:21;4.47;;;3.47;;
48034;SDS011;33812;46.480;6.834;2022-08-19T18:26:26;4.72;;;3.72;;
48034;SDS011;33812;46.480;6.834;2022-08-19T18:30:29;5.10;;;3.53;;
48034;SDS011;33812;46.480;6.834;2022-08-19T18:34:34;4.40;;;4.00;;
48034;SDS011;33812;46.480;6.834;2022-08-19T18:38:36;5.47;;;4.40;;
48034;SDS011;33812;46.480;6.834;2022-08-19T18:42:57;6.28;;;3.80;;
48034;SDS011;33812;46.480;6.834;2022-08-19T18:47:20;4.40;;;3.60;;
48034;SDS011;33812;46.480;6.834;2022-08-19T18:51:39;4.43;;;3.78;;
48034;SDS011;33812;46.480;6.834;2022-08-19T18:55:41;11.18;;;4.18;;
48034;SDS011;33812;46.480;6.834;2022-08-19T18:59:45;3.97;;;3.58;;
48034;SDS011;33812;46.480;6.834;2022-08-19T19:03:49;5.25;;;4.28;;
48034;SDS011;33812;46.480;6.834;2022-08-19T19:07:53;5.93;;;4.70;;
48034;SDS011;33812;46.480;6.834;2022-08-19T19:11:56;4.03;;;3.63;;
48034;SDS011;33812;46.480;6.834;2022-08-19T19:15:59;4.77;;;4.17;;
48034;SDS011;33812;46.480;6.834;2022-08-19T19:20:04;4.18;;;3.70;;
48034;SDS011;33812;46.480;6.834;2022-08-19T19:24:06;4.32;;;3.35;;
48034;SDS011;33812;46.480;6.834;2022-08-19T19:28:10;5.78;;;3.95;;
48034;SDS011;33812;46.480;6.834;2022-08-19T19:32:16;3.90;;;3.50;;
48034;SDS011;33812;46.480;6.834;2022-08-19T19:40:29;7.13;;;4.43;;
48034;SDS011;33812;46.480;6.834;2022-08-19T19:44:31;4.22;;;3.58;;
48034;SDS011;33812;46.480;6.834;2022-08-19T19:52:39;7.20;;;3.65;;
48034;SDS011;33812;46.480;6.834;2022-08-19T19:56:43;9.87;;;3.53;;
48034;SDS011;33812;46.480;6.834;2022-08-19T20:04:58;4.72;;;3.55;;
48034;SDS011;33812;46.480;6.834;2022-08-19T20:09:02;5.28;;;3.83;;
48034;SDS011;33812;46.480;6.834;2022-08-19T20:13:09;5.80;;;3.20;;
48034;SDS011;33812;46.480;6.834;2022-08-19T20:17:14;4.68;;;3.83;;
48034;SDS011;33812;46.480;6.834;2022-08-19T20:21:22;5.63;;;3.80;;
48034;SDS011;33812;46.480;6.834;2022-08-19T20:25:29;6.60;;;3.67;;
48034;SDS011;33812;46.480;6.834;2022-08-19T20:29:33;4.80;;;3.67;;
48034;SDS011;33812;46.480;6.834;2022-08-19T20:33:37;5.03;;;3.25;;
48034;SDS011;33812;46.480;6.834;2022-08-19T20:37:41;6.10;;;3.33;;
48034;SDS011;33812;46.480;6.834;2022-08-19T20:41:46;7.05;;;3.78;;
48034;SDS011;33812;46.480;6.834;2022-08-19T20:45:52;4.53;;;3.20;;
48034;SDS011;33812;46.480;6.834;2022-08-19T20:49:54;9.02;;;4.15;;
48034;SDS011;33812;46.480;6.834;2022-08-19T20:53:56;7.40;;;3.97;;
48034;SDS011;33812;46.480;6.834;2022-08-19T20:58:00;6.43;;;4.07;;
48034;SDS011;33812;46.480;6.834;2022-08-19T21:02:03;7.57;;;4.00;;
48034;SDS011;33812;46.480;6.834;2022-08-19T21:06:05;8.63;;;3.45;;
48034;SDS011;33812;46.480;6.834;2022-08-19T21:10:07;5.63;;;3.35;;
48034;SDS011;33812;46.480;6.834;2022-08-19T21:14:12;5.38;;;3.40;;
48034;SDS011;33812;46.480;6.834;2022-08-19T21:18:14;5.07;;;3.33;;
48034;SDS011;33812;46.480;6.834;2022-08-19T21:22:18;9.38;;;3.63;;
48034;SDS011;33812;46.480;6.834;2022-08-19T21:26:20;4.88;;;3.45;;
48034;SDS011;33812;46.480;6.834;2022-08-19T21:30:23;4.00;;;3.53;;
48034;SDS011;33812;46.480;6.834;2022-08-19T21:34:25;11.10;;;3.75;;
48034;SDS011;33812;46.480;6.834;2022-08-19T21:38:27;5.03;;;3.28;;
48034;SDS011;33812;46.480;6.834;2022-08-19T21:42:29;4.85;;;3.17;;
48034;SDS011;33812;46.480;6.834;2022-08-19T21:46:32;4.32;;;3.40;;
48034;SDS011;33812;46.480;6.834;2022-08-19T21:50:34;4.45;;;3.63;;
48034;SDS011;33812;46.480;6.834;2022-08-19T21:54:35;4.82;;;3.33;;
48034;SDS011;33812;46.480;6.834;2022-08-19T21:58:37;7.00;;;3.90;;
48034;SDS011;33812;46.480;6.834;2022-08-19T22:02:41;4.30;;;3.35;;
48034;SDS011;33812;46.480;6.834;2022-08-19T22:06:44;6.47;;;4.03;;
48034;SDS011;33812;46.480;6.834;2022-08-19T22:10:46;3.42;;;3.13;;
48034;SDS011;33812;46.480;6.834;2022-08-19T22:14:49;6.47;;;3.22;;
48034;SDS011;33812;46.480;6.834;2022-08-19T22:18:53;6.15;;;3.67;;
48034;SDS011;33812;46.480;6.834;2022-08-19T22:22:55;6.15;;;3.55;;
48034;SDS011;33812;46.480;6.834;2022-08-19T22:27:00;5.68;;;3.42;;
48034;SDS011;33812;46.480;6.834;2022-08-19T22:31:05;4.40;;;3.53;;
48034;SDS011;33812;46.480;6.834;2022-08-19T22:35:09;5.13;;;3.40;;
48034;SDS011;33812;46.480;6.834;2022-08-19T22:39:10;7.32;;;3.95;;
48034;SDS011;33812;46.480;6.834;2022-08-19T22:43:13;8.27;;;3.78;;
48034;SDS011;33812;46.480;6.834;2022-08-19T22:47:16;4.60;;;3.30;;
48034;SDS011;33812;46.480;6.834;2022-08-19T22:51:20;8.00;;;3.63;;
48034;SDS011;33812;46.480;6.834;2022-08-19T22:55:40;5.90;;;3.40;;
48034;SDS011;33812;46.480;6.834;2022-08-19T22:59:41;5.00;;;2.95;;
48034;SDS011;33812;46.480;6.834;2022-08-19T23:03:44;6.57;;;3.15;;
48034;SDS011;33812;46.480;6.834;2022-08-19T23:07:48;4.10;;;2.75;;
48034;SDS011;33812;46.480;6.834;2022-08-19T23:11:50;4.55;;;2.65;;
48034;SDS011;33812;46.480;6.834;2022-08-19T23:15:54;4.05;;;3.13;;
48034;SDS011;33812;46.480;6.834;2022-08-19T23:20:02;10.23;;;3.17;;
48034;SDS011;33812;46.480;6.834;2022-08-19T23:24:07;5.25;;;3.45;;
48034;SDS011;33812;46.480;6.834;2022-08-19T23:28:16;3.38;;;3.08;;
48034;SDS011;33812;46.480;6.834;2022-08-19T23:36:44;4.20;;;3.50;;
48034;SDS011;33812;46.480;6.834;2022-08-19T23:40:50;7.55;;;2.80;;
48034;SDS011;33812;46.480;6.834;2022-08-19T23:44:58;5.43;;;3.08;;
48034;SDS011;33812;46.480;6.834;2022-08-19T23:53:05;6.13;;;3.47;;
48034;SDS011;33812;46.480;6.834;2022-08-19T23:57:11;11.00;;;3.60;;
